sensor_id;sensor_type;location;lat;lon;timestamp;pressure;altitude;pressure_sealevel;temperature;humidity
67803;BME280;54601;51.378;-1.342;2023-02-13T00:00:36;102130.80;;;18.90;32.82
67803;BME280;54601;51.378;-1.342;2023-02-13T00:03:01;102128.85;;;18.89;32.73
67803;BME280;54601;51.378;-1.342;2023-02-13T00:05:26;102125.52;;;18.68;32.75
67803;BME280;54601;51.378;-1.342;2023-02-13T00:07:51;102123.59;;;18.88;32.77
67803;BME280;54601;51.378;-1.342;2023-02-13T00:10:17;102120.92;;;18.85;32.86
67803;BME280;54601;51.378;-1.342;2023-02-13T00:12:41;102119.07;;;18.61;32.95
67803;BME280;54601;51.378;-1.342;2023-02-13T00:15:08;102117.17;;;18.80;33.00
67803;BME280;54601;51.378;-1.342;2023-02-13T00:17:32;102116.66;;;18.81;32.99
67803;BME280;54601;51.378;-1.342;2023-02-13T00:19:57;102115.00;;;18.55;32.95
67803;BME280;54601;51.378;-1.342;2023-02-13T00:22:22;102113.61;;;18.76;32.89
67803;BME280;54601;51.378;-1.342;2023-02-13T00:24:48;102111.96;;;18.54;32.90
67803;BME280;54601;51.378;-1.342;2023-02-13T00:27:13;102107.42;;;18.54;32.81
67803;BME280;54601;51.378;-1.342;2023-02-13T00:29:38;102107.15;;;18.45;32.93
67803;BME280;54601;51.378;-1.342;2023-02-13T00:32:03;102102.70;;;18.73;32.81
67803;BME280;54601;51.378;-1.342;2023-02-13T00:34:28;102098.33;;;18.52;32.71
67803;BME280;54601;51.378;-1.342;2023-02-13T00:36:53;102096.87;;;18.71;32.66
67803;BME280;54601;51.378;-1.342;2023-02-13T00:39:19;102095.98;;;18.69;32.74
67803;BME280;54601;51.378;-1.342;2023-02-13T00:41:44;102100.43;;;18.67;32.71
67803;BME280;54601;51.378;-1.342;2023-02-13T00:44:09;102103.66;;;18.41;32.76
67803;BME280;54601;51.378;-1.342;2023-02-13T00:46:34;102104.16;;;18.65;32.70
67803;BME280;54601;51.378;-1.342;2023-02-13T00:48:59;102099.78;;;18.57;32.76
67803;BME280;54601;51.378;-1.342;2023-02-13T00:51:25;102099.36;;;18.62;32.75
67803;BME280;54601;51.378;-1.342;2023-02-13T00:53:50;102099.63;;;18.66;32.62
67803;BME280;54601;51.378;-1.342;2023-02-13T00:56:15;102096.99;;;18.62;32.68
67803;BME280;54601;51.378;-1.342;2023-02-13T00:58:40;102097.05;;;18.62;32.62
67803;BME280;54601;51.378;-1.342;2023-02-13T01:01:06;102096.52;;;18.45;32.60
67803;BME280;54601;51.378;-1.342;2023-02-13T01:03:31;102097.26;;;18.62;32.64
67803;BME280;54601;51.378;-1.342;2023-02-13T01:05:56;102099.27;;;18.46;32.61
67803;BME280;54601;51.378;-1.342;2023-02-13T01:08:21;102089.76;;;18.64;32.66
67803;BME280;54601;51.378;-1.342;2023-02-13T01:10:48;102091.28;;;18.65;32.66
67803;BME280;54601;51.378;-1.342;2023-02-13T01:13:12;102092.91;;;18.62;32.67
67803;BME280;54601;51.378;-1.342;2023-02-13T01:15:37;102088.32;;;18.58;32.75
67803;BME280;54601;51.378;-1.342;2023-02-13T01:18:03;102089.65;;;18.59;32.74
67803;BME280;54601;51.378;-1.342;2023-02-13T01:20:28;102090.28;;;18.66;32.64
67803;BME280;54601;51.378;-1.342;2023-02-13T01:22:53;102085.95;;;18.76;32.53
67803;BME280;54601;51.378;-1.342;2023-02-13T01:25:18;102090.46;;;18.68;32.69
67803;BME280;54601;51.378;-1.342;2023-02-13T01:27:43;102091.97;;;18.73;32.60
67803;BME280;54601;51.378;-1.342;2023-02-13T01:30:11;102091.64;;;18.73;32.63
67803;BME280;54601;51.378;-1.342;2023-02-13T01:32:33;102091.19;;;18.70;32.65
67803;BME280;54601;51.378;-1.342;2023-02-13T01:34:59;102090.10;;;18.74;32.68
67803;BME280;54601;51.378;-1.342;2023-02-13T01:37:24;102091.07;;;18.65;32.87
67803;BME280;54601;51.378;-1.342;2023-02-13T01:39:49;102091.90;;;18.65;32.83
67803;BME280;54601;51.378;-1.342;2023-02-13T01:42:16;102091.44;;;18.64;32.87
67803;BME280;54601;51.378;-1.342;2023-02-13T01:44:47;102091.01;;;18.70;32.83
67803;BME280;54601;51.378;-1.342;2023-02-13T01:47:05;102089.84;;;18.90;32.71
67803;BME280;54601;51.378;-1.342;2023-02-13T01:49:31;102094.51;;;18.84;32.76
67803;BME280;54601;51.378;-1.342;2023-02-13T01:51:55;102096.59;;;18.93;32.69
67803;BME280;54601;51.378;-1.342;2023-02-13T01:54:24;102098.96;;;18.79;32.81
67803;BME280;54601;51.378;-1.342;2023-02-13T01:56:48;102093.65;;;18.99;32.62
67803;BME280;54601;51.378;-1.342;2023-02-13T01:59:15;102097.03;;;19.18;32.35
67803;BME280;54601;51.378;-1.342;2023-02-13T02:01:36;102096.17;;;19.39;32.14
67803;BME280;54601;51.378;-1.342;2023-02-13T02:04:06;102095.31;;;19.16;32.41
67803;BME280;54601;51.378;-1.342;2023-02-13T02:06:30;102098.15;;;19.30;32.20
67803;BME280;54601;51.378;-1.342;2023-02-13T02:08:54;102096.32;;;19.15;32.46
67803;BME280;54601;51.378;-1.342;2023-02-13T02:11:24;102092.46;;;19.26;32.33
67803;BME280;54601;51.378;-1.342;2023-02-13T02:13:42;102088.65;;;19.06;32.29
67803;BME280;54601;51.378;-1.342;2023-02-13T02:16:07;102086.97;;;19.13;32.53
67803;BME280;54601;51.378;-1.342;2023-02-13T02:18:32;102084.80;;;18.92;32.91
67803;BME280;54601;51.378;-1.342;2023-02-13T02:21:09;102082.26;;;18.97;32.87
67803;BME280;54601;51.378;-1.342;2023-02-13T02:23:42;102076.27;;;19.22;32.52
67803;BME280;54601;51.378;-1.342;2023-02-13T02:25:59;102078.54;;;19.49;32.18
67803;BME280;54601;51.378;-1.342;2023-02-13T02:28:29;102079.68;;;19.16;32.27
67803;BME280;54601;51.378;-1.342;2023-02-13T02:30:52;102076.18;;;19.50;32.18
67803;BME280;54601;51.378;-1.342;2023-02-13T02:33:15;102077.17;;;19.52;32.16
67803;BME280;54601;51.378;-1.342;2023-02-13T02:35:34;102076.28;;;19.29;32.21
67803;BME280;54601;51.378;-1.342;2023-02-13T02:38:05;102077.56;;;19.50;32.22
67803;BME280;54601;51.378;-1.342;2023-02-13T02:40:25;102074.70;;;19.56;32.19
67803;BME280;54601;51.378;-1.342;2023-02-13T02:42:56;102077.61;;;19.34;32.20
67803;BME280;54601;51.378;-1.342;2023-02-13T02:45:15;102076.19;;;19.55;32.23
67803;BME280;54601;51.378;-1.342;2023-02-13T02:47:41;102076.52;;;19.58;32.21
67803;BME280;54601;51.378;-1.342;2023-02-13T02:52:36;102073.83;;;19.41;32.18
67803;BME280;54601;51.378;-1.342;2023-02-13T02:54:53;102070.15;;;19.61;32.21
67803;BME280;54601;51.378;-1.342;2023-02-13T02:57:19;102071.63;;;19.65;32.18
67803;BME280;54601;51.378;-1.342;2023-02-13T02:59:42;102066.35;;;19.37;32.27
67803;BME280;54601;51.378;-1.342;2023-02-13T03:02:07;102062.29;;;19.49;32.13
67803;BME280;54601;51.378;-1.342;2023-02-13T03:04:33;102066.12;;;19.61;32.25
67803;BME280;54601;51.378;-1.342;2023-02-13T03:06:59;102066.21;;;19.70;32.17
67803;BME280;54601;51.378;-1.342;2023-02-13T03:09:25;102063.93;;;19.71;32.14
67803;BME280;54601;51.378;-1.342;2023-02-13T03:11:49;102066.65;;;19.82;32.07
67803;BME280;54601;51.378;-1.342;2023-02-13T03:14:19;102062.93;;;19.70;32.18
67803;BME280;54601;51.378;-1.342;2023-02-13T03:16:37;102063.72;;;19.77;32.13
67803;BME280;54601;51.378;-1.342;2023-02-13T03:19:02;102060.06;;;19.49;32.23
67803;BME280;54601;51.378;-1.342;2023-02-13T03:21:33;102059.15;;;19.64;32.06
67803;BME280;54601;51.378;-1.342;2023-02-13T03:23:58;102062.20;;;19.68;32.01
67803;BME280;54601;51.378;-1.342;2023-02-13T03:26:31;102060.47;;;19.86;32.06
67803;BME280;54601;51.378;-1.342;2023-02-13T03:28:48;102060.38;;;19.63;32.05
67803;BME280;54601;51.378;-1.342;2023-02-13T03:31:13;102059.22;;;19.61;32.09
67803;BME280;54601;51.378;-1.342;2023-02-13T03:33:46;102055.11;;;19.87;32.07
67803;BME280;54601;51.378;-1.342;2023-02-13T03:36:02;102052.90;;;19.88;32.04
67803;BME280;54601;51.378;-1.342;2023-02-13T03:38:27;102055.08;;;19.85;32.07
67803;BME280;54601;51.378;-1.342;2023-02-13T03:40:52;102051.56;;;19.63;32.06
67803;BME280;54601;51.378;-1.342;2023-02-13T03:43:16;102047.29;;;19.83;32.12
67803;BME280;54601;51.378;-1.342;2023-02-13T03:45:43;102045.67;;;19.51;32.26
67803;BME280;54601;51.378;-1.342;2023-02-13T03:48:06;102047.80;;;19.41;32.07
67803;BME280;54601;51.378;-1.342;2023-02-13T03:50:29;102047.73;;;19.42;32.06
67803;BME280;54601;51.378;-1.342;2023-02-13T03:52:57;102050.46;;;19.36;32.19
67803;BME280;54601;51.378;-1.342;2023-02-13T03:55:21;102046.38;;;19.96;32.03
67803;BME280;54601;51.378;-1.342;2023-02-13T03:57:46;102045.62;;;19.61;32.19
67803;BME280;54601;51.378;-1.342;2023-02-13T04:00:13;102043.16;;;20.07;31.89
67803;BME280;54601;51.378;-1.342;2023-02-13T04:02:40;102047.25;;;19.90;31.84
67803;BME280;54601;51.378;-1.342;2023-02-13T04:05:05;102044.33;;;20.27;31.68
67803;BME280;54601;51.378;-1.342;2023-02-13T04:07:25;102043.33;;;19.73;31.72
67803;BME280;54601;51.378;-1.342;2023-02-13T04:09:50;102042.20;;;19.56;31.86
67803;BME280;54601;51.378;-1.342;2023-02-13T04:12:19;102045.09;;;19.80;31.64
67803;BME280;54601;51.378;-1.342;2023-02-13T04:14:47;102044.31;;;19.91;31.79
67803;BME280;54601;51.378;-1.342;2023-02-13T04:17:09;102043.24;;;20.00;31.69
67803;BME280;54601;51.378;-1.342;2023-02-13T04:19:31;102043.80;;;19.61;31.83
67803;BME280;54601;51.378;-1.342;2023-02-13T04:21:58;102045.53;;;19.58;31.84
67803;BME280;54601;51.378;-1.342;2023-02-13T04:24:21;102044.78;;;19.61;31.82
67803;BME280;54601;51.378;-1.342;2023-02-13T04:26:46;102049.07;;;19.91;31.75
67803;BME280;54601;51.378;-1.342;2023-02-13T04:29:12;102046.60;;;19.70;32.09
67803;BME280;54601;51.378;-1.342;2023-02-13T04:31:37;102045.34;;;20.07;31.98
67803;BME280;54601;51.378;-1.342;2023-02-13T04:34:02;102043.81;;;20.09;31.86
67803;BME280;54601;51.378;-1.342;2023-02-13T04:36:27;102045.39;;;19.91;31.81
67803;BME280;54601;51.378;-1.342;2023-02-13T04:38:52;102040.38;;;19.55;32.30
67803;BME280;54601;51.378;-1.342;2023-02-13T04:41:18;102039.95;;;20.05;31.92
67803;BME280;54601;51.378;-1.342;2023-02-13T04:43:43;102036.19;;;19.66;31.78
67803;BME280;54601;51.378;-1.342;2023-02-13T04:46:08;102034.88;;;19.95;32.02
67803;BME280;54601;51.378;-1.342;2023-02-13T04:48:33;102034.87;;;19.46;32.04
67803;BME280;54601;51.378;-1.342;2023-02-13T04:50:58;102032.25;;;19.55;31.88
67803;BME280;54601;51.378;-1.342;2023-02-13T04:53:23;102033.23;;;19.66;31.74
67803;BME280;54601;51.378;-1.342;2023-02-13T04:55:49;102039.99;;;19.67;31.72
67803;BME280;54601;51.378;-1.342;2023-02-13T04:58:14;102044.10;;;20.04;31.82
67803;BME280;54601;51.378;-1.342;2023-02-13T05:00:39;102044.48;;;19.85;31.83
67803;BME280;54601;51.378;-1.342;2023-02-13T05:03:05;102046.55;;;19.58;31.78
67803;BME280;54601;51.378;-1.342;2023-02-13T05:05:29;102040.07;;;20.11;31.68
67803;BME280;54601;51.378;-1.342;2023-02-13T05:07:54;102040.18;;;19.56;31.75
67803;BME280;54601;51.378;-1.342;2023-02-13T05:10:19;102043.10;;;19.66;31.98
67803;BME280;54601;51.378;-1.342;2023-02-13T05:12:44;102045.77;;;19.58;31.75
67803;BME280;54601;51.378;-1.342;2023-02-13T05:15:10;102043.48;;;19.54;31.78
67803;BME280;54601;51.378;-1.342;2023-02-13T05:17:35;102042.95;;;19.85;31.74
67803;BME280;54601;51.378;-1.342;2023-02-13T05:20:00;102042.49;;;19.85;31.71
67803;BME280;54601;51.378;-1.342;2023-02-13T05:22:25;102041.90;;;19.59;31.75
67803;BME280;54601;51.378;-1.342;2023-02-13T05:24:50;102038.93;;;19.52;31.80
67803;BME280;54601;51.378;-1.342;2023-02-13T05:27:15;102036.31;;;20.09;31.71
67803;BME280;54601;51.378;-1.342;2023-02-13T05:29:41;102038.78;;;19.39;32.01
67803;BME280;54601;51.378;-1.342;2023-02-13T05:32:06;102037.34;;;19.51;31.86
67803;BME280;54601;51.378;-1.342;2023-02-13T05:34:31;102039.21;;;19.26;32.26
67803;BME280;54601;51.378;-1.342;2023-02-13T05:36:56;102038.88;;;19.32;32.24
67803;BME280;54601;51.378;-1.342;2023-02-13T05:39:22;102039.26;;;19.82;31.85
67803;BME280;54601;51.378;-1.342;2023-02-13T05:41:48;102041.17;;;19.98;31.59
67803;BME280;54601;51.378;-1.342;2023-02-13T05:44:12;102040.16;;;20.00;31.58
67803;BME280;54601;51.378;-1.342;2023-02-13T05:46:38;102034.62;;;19.57;31.71
67803;BME280;54601;51.378;-1.342;2023-02-13T05:49:02;102028.96;;;19.85;32.10
67803;BME280;54601;51.378;-1.342;2023-02-13T05:51:27;102033.29;;;19.79;31.81
67803;BME280;54601;51.378;-1.342;2023-02-13T05:53:52;102032.85;;;19.31;32.20
67803;BME280;54601;51.378;-1.342;2023-02-13T05:56:17;102032.27;;;19.34;32.19
67803;BME280;54601;51.378;-1.342;2023-02-13T05:58:43;102028.43;;;20.09;31.65
67803;BME280;54601;51.378;-1.342;2023-02-13T06:01:08;102025.87;;;19.69;32.28
67803;BME280;54601;51.378;-1.342;2023-02-13T06:03:33;102020.10;;;19.48;32.26
67803;BME280;54601;51.378;-1.342;2023-02-13T06:05:58;102019.82;;;19.43;32.28
67803;BME280;54601;51.378;-1.342;2023-02-13T06:08:24;102019.49;;;19.69;32.30
67803;BME280;54601;51.378;-1.342;2023-02-13T06:10:49;102023.16;;;19.16;32.28
67803;BME280;54601;51.378;-1.342;2023-02-13T06:13:14;102020.84;;;19.22;32.22
67803;BME280;54601;51.378;-1.342;2023-02-13T06:15:39;102021.62;;;19.24;32.18
67803;BME280;54601;51.378;-1.342;2023-02-13T06:18:04;102016.21;;;19.22;32.23
67803;BME280;54601;51.378;-1.342;2023-02-13T06:20:29;102013.96;;;19.40;32.29
67803;BME280;54601;51.378;-1.342;2023-02-13T06:22:54;102018.18;;;19.64;32.25
67803;BME280;54601;51.378;-1.342;2023-02-13T06:25:19;102018.12;;;19.14;32.25
67803;BME280;54601;51.378;-1.342;2023-02-13T06:27:45;102019.12;;;19.68;32.19
67803;BME280;54601;51.378;-1.342;2023-02-13T06:30:10;102018.70;;;19.19;32.19
67803;BME280;54601;51.378;-1.342;2023-02-13T06:32:35;102013.42;;;19.63;32.22
67803;BME280;54601;51.378;-1.342;2023-02-13T06:35:00;102009.48;;;19.45;32.17
67803;BME280;54601;51.378;-1.342;2023-02-13T06:37:25;102006.92;;;19.18;32.17
67803;BME280;54601;51.378;-1.342;2023-02-13T06:39:50;102007.23;;;19.24;32.07
67803;BME280;54601;51.378;-1.342;2023-02-13T06:42:15;102013.22;;;19.20;32.12
67803;BME280;54601;51.378;-1.342;2023-02-13T06:44:41;102010.23;;;19.20;32.13
67803;BME280;54601;51.378;-1.342;2023-02-13T06:47:06;102009.61;;;19.72;32.08
67803;BME280;54601;51.378;-1.342;2023-02-13T06:49:31;102009.72;;;19.49;32.04
67803;BME280;54601;51.378;-1.342;2023-02-13T06:51:56;102014.02;;;19.44;32.08
67803;BME280;54601;51.378;-1.342;2023-02-13T06:54:21;102016.62;;;19.17;32.08
67803;BME280;54601;51.378;-1.342;2023-02-13T06:56:46;102019.67;;;19.15;32.08
67803;BME280;54601;51.378;-1.342;2023-02-13T06:59:12;102021.24;;;19.42;32.13
67803;BME280;54601;51.378;-1.342;2023-02-13T07:01:37;102022.55;;;19.37;32.18
67803;BME280;54601;51.378;-1.342;2023-02-13T07:04:02;102022.12;;;19.12;32.09
67803;BME280;54601;51.378;-1.342;2023-02-13T07:06:27;102024.64;;;19.09;32.09
67803;BME280;54601;51.378;-1.342;2023-02-13T07:08:52;102025.25;;;19.36;32.12
67803;BME280;54601;51.378;-1.342;2023-02-13T07:11:18;102025.90;;;19.40;32.07
67803;BME280;54601;51.378;-1.342;2023-02-13T07:13:43;102027.60;;;19.37;32.07
67803;BME280;54601;51.378;-1.342;2023-02-13T07:16:08;102025.74;;;19.09;32.07
67803;BME280;54601;51.378;-1.342;2023-02-13T07:18:33;102022.46;;;19.09;32.04
67803;BME280;54601;51.378;-1.342;2023-02-13T07:20:58;102021.35;;;19.54;32.06
67803;BME280;54601;51.378;-1.342;2023-02-13T07:23:23;102022.13;;;19.57;32.02
67803;BME280;54601;51.378;-1.342;2023-02-13T07:25:49;102023.10;;;19.37;31.99
67803;BME280;54601;51.378;-1.342;2023-02-13T07:28:14;102025.71;;;19.49;32.05
67803;BME280;54601;51.378;-1.342;2023-02-13T07:30:39;102026.26;;;19.03;32.04
67803;BME280;54601;51.378;-1.342;2023-02-13T07:33:04;102027.32;;;19.51;32.02
67803;BME280;54601;51.378;-1.342;2023-02-13T07:35:30;102023.37;;;19.04;32.05
67803;BME280;54601;51.378;-1.342;2023-02-13T07:37:55;102025.59;;;19.09;31.99
67803;BME280;54601;51.378;-1.342;2023-02-13T07:40:20;102025.31;;;19.31;31.99
67803;BME280;54601;51.378;-1.342;2023-02-13T07:42:45;102029.77;;;19.02;32.01
67803;BME280;54601;51.378;-1.342;2023-02-13T07:45:10;102027.18;;;18.98;32.04
67803;BME280;54601;51.378;-1.342;2023-02-13T07:47:35;102031.68;;;19.01;31.96
67803;BME280;54601;51.378;-1.342;2023-02-13T07:50:01;102035.95;;;19.44;32.05
67803;BME280;54601;51.378;-1.342;2023-02-13T07:52:26;102034.13;;;19.25;32.01
67803;BME280;54601;51.378;-1.342;2023-02-13T07:54:51;102034.94;;;19.04;31.94
67803;BME280;54601;51.378;-1.342;2023-02-13T07:57:16;102036.27;;;18.97;32.01
67803;BME280;54601;51.378;-1.342;2023-02-13T07:59:41;102039.25;;;19.25;31.99
67803;BME280;54601;51.378;-1.342;2023-02-13T08:02:10;102036.33;;;19.27;31.96
67803;BME280;54601;51.378;-1.342;2023-02-13T08:04:32;102031.58;;;19.07;31.84
67803;BME280;54601;51.378;-1.342;2023-02-13T08:06:57;102034.64;;;19.27;31.93
67803;BME280;54601;51.378;-1.342;2023-02-13T08:09:22;102033.00;;;19.03;31.90
67803;BME280;54601;51.378;-1.342;2023-02-13T08:11:47;102032.26;;;19.01;31.87
67803;BME280;54601;51.378;-1.342;2023-02-13T08:14:12;102027.08;;;19.32;31.83
67803;BME280;54601;51.378;-1.342;2023-02-13T08:16:37;102026.81;;;19.08;31.80
67803;BME280;54601;51.378;-1.342;2023-02-13T08:19:03;102025.76;;;19.22;31.97
67803;BME280;54601;51.378;-1.342;2023-02-13T08:21:28;102024.96;;;19.47;31.97
67803;BME280;54601;51.378;-1.342;2023-02-13T08:23:53;102026.74;;;19.03;32.06
67803;BME280;54601;51.378;-1.342;2023-02-13T08:26:18;102027.25;;;18.99;32.29
67803;BME280;54601;51.378;-1.342;2023-02-13T08:28:43;102028.86;;;19.10;32.39
67803;BME280;54601;51.378;-1.342;2023-02-13T08:31:09;102029.48;;;19.09;32.50
67803;BME280;54601;51.378;-1.342;2023-02-13T08:33:34;102030.63;;;19.44;32.83
67803;BME280;54601;51.378;-1.342;2023-02-13T08:36:02;102036.27;;;19.00;32.84
67803;BME280;54601;51.378;-1.342;2023-02-13T08:38:24;102035.99;;;19.27;32.82
67803;BME280;54601;51.378;-1.342;2023-02-13T08:40:49;102031.33;;;19.25;32.57
67803;BME280;54601;51.378;-1.342;2023-02-13T08:43:14;102034.13;;;19.06;32.82
67803;BME280;54601;51.378;-1.342;2023-02-13T08:45:40;102037.61;;;19.10;32.75
67803;BME280;54601;51.378;-1.342;2023-02-13T08:48:05;102036.85;;;19.15;32.66
67803;BME280;54601;51.378;-1.342;2023-02-13T08:50:30;102034.04;;;19.60;32.53
67803;BME280;54601;51.378;-1.342;2023-02-13T08:52:57;102033.92;;;19.50;32.57
67803;BME280;54601;51.378;-1.342;2023-02-13T08:55:20;102031.45;;;20.02;32.45
67803;BME280;54601;51.378;-1.342;2023-02-13T08:57:46;102035.63;;;19.56;32.38
67803;BME280;54601;51.378;-1.342;2023-02-13T09:00:12;102035.25;;;19.41;32.48
67803;BME280;54601;51.378;-1.342;2023-02-13T09:02:36;102038.62;;;20.03;32.25
67803;BME280;54601;51.378;-1.342;2023-02-13T09:05:01;102038.11;;;19.94;32.23
67803;BME280;54601;51.378;-1.342;2023-02-13T09:07:26;102042.85;;;19.16;32.70
67803;BME280;54601;51.378;-1.342;2023-02-13T09:09:51;102038.24;;;19.59;32.62
67803;BME280;54601;51.378;-1.342;2023-02-13T09:12:17;102039.50;;;19.67;32.65
67803;BME280;54601;51.378;-1.342;2023-02-13T09:14:42;102036.33;;;19.72;32.63
67803;BME280;54601;51.378;-1.342;2023-02-13T09:17:07;102041.07;;;19.44;32.71
67803;BME280;54601;51.378;-1.342;2023-02-13T09:19:32;102039.87;;;19.76;32.65
67803;BME280;54601;51.378;-1.342;2023-02-13T09:21:57;102034.79;;;19.50;32.56
67803;BME280;54601;51.378;-1.342;2023-02-13T09:24:22;102036.87;;;19.86;32.47
67803;BME280;54601;51.378;-1.342;2023-02-13T09:26:48;102038.44;;;19.41;32.72
67803;BME280;54601;51.378;-1.342;2023-02-13T09:29:13;102041.96;;;20.00;32.75
67803;BME280;54601;51.378;-1.342;2023-02-13T09:31:38;102045.12;;;20.04;32.23
67803;BME280;54601;51.378;-1.342;2023-02-13T09:34:03;102043.03;;;19.40;32.86
67803;BME280;54601;51.378;-1.342;2023-02-13T09:36:28;102042.15;;;19.43;32.58
67803;BME280;54601;51.378;-1.342;2023-02-13T09:38:55;102041.59;;;19.34;32.78
67803;BME280;54601;51.378;-1.342;2023-02-13T09:41:21;102044.50;;;19.37;32.60
67803;BME280;54601;51.378;-1.342;2023-02-13T09:43:46;102039.45;;;19.39;32.44
67803;BME280;54601;51.378;-1.342;2023-02-13T09:46:12;102034.00;;;19.48;32.29
67803;BME280;54601;51.378;-1.342;2023-02-13T09:48:36;102030.70;;;19.80;32.12
67803;BME280;54601;51.378;-1.342;2023-02-13T09:50:59;102033.22;;;19.47;32.14
67803;BME280;54601;51.378;-1.342;2023-02-13T09:53:26;102034.33;;;19.57;32.03
67803;BME280;54601;51.378;-1.342;2023-02-13T09:55:57;102035.34;;;19.73;31.76
67803;BME280;54601;51.378;-1.342;2023-02-13T09:58:21;102030.66;;;19.74;31.83
67803;BME280;54601;51.378;-1.342;2023-02-13T10:00:42;102031.56;;;19.60;31.94
67803;BME280;54601;51.378;-1.342;2023-02-13T10:03:14;102035.21;;;20.26;31.57
67803;BME280;54601;51.378;-1.342;2023-02-13T10:05:41;102032.84;;;20.14;31.45
67803;BME280;54601;51.378;-1.342;2023-02-13T10:08:00;102025.64;;;20.13;30.95
67803;BME280;54601;51.378;-1.342;2023-02-13T10:10:26;102022.94;;;20.20;30.79
67803;BME280;54601;51.378;-1.342;2023-02-13T10:12:55;102018.71;;;20.21;30.70
67803;BME280;54601;51.378;-1.342;2023-02-13T10:15:17;102021.66;;;20.10;30.78
67803;BME280;54601;51.378;-1.342;2023-02-13T10:17:37;102021.27;;;20.08;30.72
67803;BME280;54601;51.378;-1.342;2023-02-13T10:20:04;102021.35;;;19.93;30.89
67803;BME280;54601;51.378;-1.342;2023-02-13T10:22:29;102016.82;;;20.37;30.58
67803;BME280;54601;51.378;-1.342;2023-02-13T10:24:55;102018.20;;;19.93;30.76
67803;BME280;54601;51.378;-1.342;2023-02-13T10:27:21;102018.19;;;20.09;30.57
67803;BME280;54601;51.378;-1.342;2023-02-13T10:29:44;102021.49;;;20.18;30.74
67803;BME280;54601;51.378;-1.342;2023-02-13T10:32:10;102016.62;;;19.68;30.90
67803;BME280;54601;51.378;-1.342;2023-02-13T10:34:36;102012.87;;;20.01;30.80
67803;BME280;54601;51.378;-1.342;2023-02-13T10:36:57;102009.16;;;20.09;30.66
67803;BME280;54601;51.378;-1.342;2023-02-13T10:39:24;102007.66;;;20.32;30.59
67803;BME280;54601;51.378;-1.342;2023-02-13T10:41:51;102005.29;;;20.15;30.75
67803;BME280;54601;51.378;-1.342;2023-02-13T10:44:25;102003.32;;;20.03;30.58
67803;BME280;54601;51.378;-1.342;2023-02-13T10:46:45;102005.68;;;20.35;30.45
67803;BME280;54601;51.378;-1.342;2023-02-13T10:49:12;102008.42;;;19.61;30.75
67803;BME280;54601;51.378;-1.342;2023-02-13T10:51:32;102011.35;;;20.15;30.67
67803;BME280;54601;51.378;-1.342;2023-02-13T10:54:04;102010.90;;;19.99;30.52
67803;BME280;54601;51.378;-1.342;2023-02-13T10:56:24;102009.26;;;19.61;30.65
67803;BME280;54601;51.378;-1.342;2023-02-13T10:58:53;102009.81;;;20.05;30.44
67803;BME280;54601;51.378;-1.342;2023-02-13T11:01:13;102004.06;;;19.59;30.65
67803;BME280;54601;51.378;-1.342;2023-02-13T11:03:34;102006.69;;;19.53;30.54
67803;BME280;54601;51.378;-1.342;2023-02-13T11:05:59;102007.73;;;19.55;30.59
67803;BME280;54601;51.378;-1.342;2023-02-13T11:08:27;102006.47;;;19.50;30.63
67803;BME280;54601;51.378;-1.342;2023-02-13T11:10:49;102004.28;;;19.49;30.63
67803;BME280;54601;51.378;-1.342;2023-02-13T11:13:17;102001.02;;;19.52;30.54
67803;BME280;54601;51.378;-1.342;2023-02-13T11:15:39;102003.28;;;19.40;30.72
67803;BME280;54601;51.378;-1.342;2023-02-13T11:18:16;102004.87;;;19.16;30.71
67803;BME280;54601;51.378;-1.342;2023-02-13T11:20:34;102002.58;;;19.68;30.61
67803;BME280;54601;51.378;-1.342;2023-02-13T11:22:56;101997.82;;;19.73;30.77
67803;BME280;54601;51.378;-1.342;2023-02-13T11:25:22;101998.16;;;19.47;30.69
67803;BME280;54601;51.378;-1.342;2023-02-13T11:27:47;101995.86;;;19.74;30.58
67803;BME280;54601;51.378;-1.342;2023-02-13T11:32:36;101994.95;;;19.42;30.52
67803;BME280;54601;51.378;-1.342;2023-02-13T11:37:28;101998.01;;;19.08;30.90
67803;BME280;54601;51.378;-1.342;2023-02-13T11:39:53;101991.85;;;19.37;30.54
67803;BME280;54601;51.378;-1.342;2023-02-13T11:42:20;101991.78;;;19.93;30.16
67803;BME280;54601;51.378;-1.342;2023-02-13T11:44:43;101984.50;;;19.59;30.31
67803;BME280;54601;51.378;-1.342;2023-02-13T11:47:07;101983.10;;;19.63;30.20
67803;BME280;54601;51.378;-1.342;2023-02-13T11:49:34;101980.71;;;19.58;30.55
67803;BME280;54601;51.378;-1.342;2023-02-13T11:51:58;101977.01;;;19.39;30.46
67803;BME280;54601;51.378;-1.342;2023-02-13T11:54:29;101980.65;;;19.51;30.38
67803;BME280;54601;51.378;-1.342;2023-02-13T11:56:49;101978.38;;;19.53;30.44
67803;BME280;54601;51.378;-1.342;2023-02-13T11:59:12;101974.23;;;19.66;30.24
67803;BME280;54601;51.378;-1.342;2023-02-13T12:01:37;101967.85;;;19.71;30.21
67803;BME280;54601;51.378;-1.342;2023-02-13T12:04:05;101960.53;;;19.68;30.22
67803;BME280;54601;51.378;-1.342;2023-02-13T12:06:28;101954.58;;;19.97;30.19
67803;BME280;54601;51.378;-1.342;2023-02-13T12:08:53;101955.01;;;19.76;30.12
67803;BME280;54601;51.378;-1.342;2023-02-13T12:11:22;101951.22;;;19.69;30.27
67803;BME280;54601;51.378;-1.342;2023-02-13T12:13:44;101949.02;;;19.73;30.21
67803;BME280;54601;51.378;-1.342;2023-02-13T12:16:13;101943.87;;;19.70;30.35
67803;BME280;54601;51.378;-1.342;2023-02-13T12:18:35;101938.97;;;19.52;30.63
67803;BME280;54601;51.378;-1.342;2023-02-13T12:21:03;101937.52;;;19.62;30.53
67803;BME280;54601;51.378;-1.342;2023-02-13T12:23:31;101939.57;;;20.05;30.33
67803;BME280;54601;51.378;-1.342;2023-02-13T12:26:03;101938.10;;;19.74;30.42
67803;BME280;54601;51.378;-1.342;2023-02-13T12:28:15;101933.82;;;19.69;30.49
67803;BME280;54601;51.378;-1.342;2023-02-13T12:30:54;101933.40;;;19.68;30.56
67803;BME280;54601;51.378;-1.342;2023-02-13T12:33:14;101932.50;;;19.70;30.59
67803;BME280;54601;51.378;-1.342;2023-02-13T12:35:38;101929.54;;;19.69;30.64